Back to Top

Language: 

My Weather Underground Personal Weather Station Historical Data with Graphs...

Delerius Weather Station Historical Data
Daily Summary for January 2, 2017 Units:  English    Metric   Both
« Previous Day
Next Day »
Daily Weekly Monthly Yearly Custom
  High: Low: Average:
Temperature: 41.5 °F 32.4 °F 35.9 °F
Dew Point: 35.3 °F 29.1 °F 31.7 °F
Humidity: 94 % 70 % 85 %
Wind Speed: 10.0 mph 0.0 mph 5.3 mph
Wind Gust: 13.0 mph - -
Wind:- - NW
Pressure: 30.44 in 30.34 in -
Precipitation: 0.00 in    
Historical Graphs
 
 
Tabular Data for January 2, 2017
Time Temperature Dew Point Pressure Wind Wind Speed Wind Gust Humidity Rainfall Rate (Hourly) solar Conditions
00:00 37.0 °F 35.2 °F 30.34 in NNW 6.0 mph 12.0 mph 93 % 0.00 in 0 W/m2
00:05 37.1 °F 35.3 °F 30.34 in NNW 5.0 mph 12.0 mph 93 % 0.00 in 0 W/m2
00:15 37.4 °F 35.3 °F 30.34 in North 3.0 mph 4.0 mph 92 % 0.00 in 0 W/m2
00:20 37.4 °F 35.3 °F 30.34 in North 1.0 mph 1.0 mph 92 % 0.00 in 0 W/m2
00:25 37.4 °F 35.3 °F 30.34 in North 1.0 mph 1.0 mph 92 % 0.00 in 0 W/m2
00:30 37.3 °F 35.2 °F 30.34 in North 1.0 mph 1.0 mph 92 % 0.00 in 0 W/m2
00:35 37.2 °F 34.8 °F 30.34 in North 1.0 mph 1.0 mph 91 % 0.00 in 0 W/m2
00:40 37.0 °F 34.6 °F 30.34 in Calm     91 % 0.00 in 0 W/m2
00:45 36.8 °F 34.4 °F 30.34 in Calm   2.0 mph 91 % 0.00 in 0 W/m2
00:50 36.6 °F 34.2 °F 30.34 in NNW 1.0 mph 1.0 mph 91 % 0.00 in 0 W/m2
01:00 36.3 °F 34.2 °F 30.34 in WNW 1.0 mph 5.0 mph 92 % 0.00 in 0 W/m2
01:05 36.3 °F 34.2 °F 30.34 in WNW 2.0 mph 10.0 mph 92 % 0.00 in 0 W/m2
01:10 36.2 °F 34.4 °F 30.34 in WNW 2.0 mph 2.0 mph 93 % 0.00 in 0 W/m2
01:15 36.1 °F 34.3 °F 30.34 in NW 2.0 mph 5.0 mph 93 % 0.00 in 0 W/m2
01:20 36.2 °F 34.4 °F 30.34 in NNW 4.0 mph 10.0 mph 93 % 0.00 in 0 W/m2
01:25 36.2 °F 34.4 °F 30.35 in NNW 4.0 mph 10.0 mph 93 % 0.00 in 0 W/m2
01:35 36.1 °F 34.3 °F 30.35 in WNW 3.0 mph 10.0 mph 93 % 0.00 in 0 W/m2
01:40 35.9 °F 33.8 °F 30.36 in NW 5.0 mph 10.0 mph 92 % 0.00 in 0 W/m2
01:45 35.7 °F 33.6 °F 30.36 in NW 6.0 mph 10.0 mph 92 % 0.00 in 0 W/m2
01:50 35.4 °F 33.6 °F 30.36 in NW 5.0 mph 10.0 mph 93 % 0.00 in 0 W/m2
01:55 35.3 °F 33.5 °F 30.36 in WNW 4.0 mph 10.0 mph 93 % 0.00 in 0 W/m2
02:00 35.2 °F 33.4 °F 30.36 in NW 5.0 mph 5.0 mph 93 % 0.00 in 0 W/m2
02:10 34.9 °F 33.1 °F 30.36 in NW 2.0 mph 10.0 mph 93 % 0.00 in 0 W/m2
02:15 34.8 °F 33.0 °F 30.37 in NW 4.0 mph 10.0 mph 93 % 0.00 in 0 W/m2
02:20 34.8 °F 33.0 °F 30.36 in WNW 6.0 mph 6.0 mph 93 % 0.00 in 0 W/m2
02:25 34.6 °F 32.8 °F 30.36 in WNW 5.0 mph 10.0 mph 93 % 0.00 in 0 W/m2
02:30 34.5 °F 32.7 °F 30.36 in NW 4.0 mph 10.0 mph 93 % 0.00 in 0 W/m2
02:35 34.5 °F 32.7 °F 30.37 in NW 4.0 mph 10.0 mph 93 % 0.00 in 0 W/m2
02:40 34.5 °F 33.0 °F 30.38 in WNW 5.0 mph 10.0 mph 94 % 0.00 in 0 W/m2
02:50 34.5 °F 33.0 °F 30.37 in NNW 6.0 mph 10.0 mph 94 % 0.00 in 0 W/m2
02:55 34.7 °F 33.2 °F 30.37 in NW 5.0 mph 10.0 mph 94 % 0.00 in 0 W/m2
03:00 34.7 °F 32.9 °F 30.38 in NW 4.0 mph 10.0 mph 93 % 0.00 in 0 W/m2
03:05 34.7 °F 32.9 °F 30.38 in NW 5.0 mph 10.0 mph 93 % 0.00 in 0 W/m2
03:10 34.7 °F 32.9 °F 30.38 in NW 5.0 mph 5.0 mph 93 % 0.00 in 0 W/m2
03:20 34.6 °F 32.8 °F 30.37 in NW 4.0 mph 4.0 mph 93 % 0.00 in 0 W/m2
03:25 34.5 °F 32.7 °F 30.37 in WNW 4.0 mph 10.0 mph 93 % 0.00 in 0 W/m2
03:30 34.4 °F 32.6 °F 30.37 in NW 4.0 mph 10.0 mph 93 % 0.00 in 0 W/m2
03:35 34.2 °F 32.4 °F 30.37 in NW 4.0 mph 10.0 mph 93 % 0.00 in 0 W/m2
03:40 34.1 °F 32.3 °F 30.38 in NW 4.0 mph 10.0 mph 93 % 0.00 in 0 W/m2
03:45 34.0 °F 32.2 °F 30.38 in NW 3.0 mph 10.0 mph 93 % 0.00 in 0 W/m2
03:50 34.0 °F 32.2 °F 30.38 in WNW 4.0 mph 4.0 mph 93 % 0.00 in 0 W/m2
04:00 34.2 °F 32.7 °F 30.38 in NW 5.0 mph 10.0 mph 94 % 0.00 in 0 W/m2
04:05 34.5 °F 33.0 °F 30.38 in NW 6.0 mph 10.0 mph 94 % 0.00 in 0 W/m2
04:10 34.7 °F 33.2 °F 30.38 in NNW 6.0 mph 10.0 mph 94 % 0.00 in 0 W/m2
04:15 34.8 °F 33.0 °F 30.39 in NW 4.0 mph 10.0 mph 93 % 0.00 in 0 W/m2
04:20 34.7 °F 32.9 °F 30.38 in NW 3.0 mph 10.0 mph 93 % 0.00 in 0 W/m2
04:30 34.6 °F 32.8 °F 30.38 in NW 4.0 mph 4.0 mph 93 % 0.00 in 0 W/m2
04:35 34.5 °F 32.7 °F 30.38 in NNW 3.0 mph 10.0 mph 93 % 0.00 in 0 W/m2
04:40 34.5 °F 32.7 °F 30.38 in NW 4.0 mph 4.0 mph 93 % 0.00 in 0 W/m2
04:45 34.5 °F 32.7 °F 30.38 in NNW 5.0 mph 5.0 mph 93 % 0.00 in 0 W/m2
04:55 34.3 °F 32.2 °F 30.39 in NW 5.0 mph 10.0 mph 92 % 0.00 in 0 W/m2
05:00 34.2 °F 32.1 °F 30.40 in WNW 6.0 mph 10.0 mph 92 % 0.00 in 0 W/m2
05:05 34.0 °F 31.9 °F 30.40 in WNW 6.0 mph 10.0 mph 92 % 0.00 in 0 W/m2
05:10 34.0 °F 31.9 °F 30.40 in NW 6.0 mph 6.0 mph 92 % 0.00 in 0 W/m2
05:20 33.9 °F 32.1 °F 30.40 in NW 5.0 mph 5.0 mph 93 % 0.00 in 0 W/m2
05:25 33.9 °F 32.1 °F 30.40 in NW 5.0 mph 10.0 mph 93 % 0.00 in 0 W/m2
05:30 33.9 °F 32.1 °F 30.40 in NW 5.0 mph 10.0 mph 93 % 0.00 in 0 W/m2
05:35 34.0 °F 32.2 °F 30.40 in NW 4.0 mph 10.0 mph 93 % 0.00 in 0 W/m2
05:40 34.0 °F 32.2 °F 30.40 in NW 4.0 mph 10.0 mph 93 % 0.00 in 0 W/m2
05:45 34.2 °F 32.4 °F 30.40 in NW 5.0 mph 10.0 mph 93 % 0.00 in 0 W/m2
05:55 34.5 °F 32.4 °F 30.40 in NW 6.0 mph 7.0 mph 92 % 0.00 in 0 W/m2
06:00 34.6 °F 32.5 °F 30.40 in NNW 7.0 mph 10.0 mph 92 % 0.00 in 0 W/m2
06:05 34.7 °F 32.3 °F 30.41 in NNW 6.0 mph 10.0 mph 91 % 0.00 in 0 W/m2
06:10 34.7 °F 32.3 °F 30.41 in NNW 5.0 mph 5.0 mph 91 % 0.00 in 0 W/m2
06:15 34.6 °F 32.2 °F 30.41 in NNW 5.0 mph 10.0 mph 91 % 0.00 in 0 W/m2
06:25 34.3 °F 31.9 °F 30.40 in NW 4.0 mph 10.0 mph 91 % 0.00 in 0 W/m2
06:30 34.2 °F 31.8 °F 30.40 in NNW 4.0 mph 10.0 mph 91 % 0.00 in 0 W/m2
06:35 34.0 °F 31.6 °F 30.40 in NW 3.0 mph 10.0 mph 91 % 0.00 in 0 W/m2
06:40 33.8 °F 31.5 °F 30.40 in NW 3.0 mph 10.0 mph 91 % 0.00 in 0 W/m2
06:45 33.7 °F 31.4 °F 30.40 in NW 4.0 mph 10.0 mph 91 % 0.00 in 0 W/m2
06:50 33.8 °F 31.7 °F 30.40 in NNW 6.0 mph 6.0 mph 92 % 0.00 in 0 W/m2
06:55 33.9 °F 31.6 °F 30.40 in NW 6.0 mph 10.0 mph 91 % 0.00 in 0 W/m2
07:05 33.9 °F 31.6 °F 30.41 in NNW 4.0 mph 10.0 mph 91 % 0.00 in 0 W/m2
07:10 33.8 °F 31.5 °F 30.40 in NNW 5.0 mph 10.0 mph 91 % 0.00 in 0 W/m2
07:15 33.9 °F 31.6 °F 30.40 in NW 5.0 mph 10.0 mph 91 % 0.00 in 0 W/m2
07:20 34.0 °F 31.6 °F 30.40 in NW 5.0 mph 5.0 mph 91 % 0.00 in 0 W/m2
07:25 33.9 °F 31.6 °F 30.41 in WNW 4.0 mph 10.0 mph 91 % 0.00 in 0 W/m2
07:30 33.8 °F 31.2 °F 30.41 in NW 4.0 mph 10.0 mph 90 % 0.00 in 0 W/m2
07:40 33.5 °F 31.2 °F 30.41 in WNW 5.0 mph 10.0 mph 91 % 0.00 in 0 W/m2
07:50 33.3 °F 31.0 °F 30.42 in NW 4.0 mph 10.0 mph 91 % 0.00 in 0 W/m2
07:55 33.3 °F 31.0 °F 30.42 in NW 4.0 mph 10.0 mph 91 % 0.00 in 0 W/m2
08:00 33.2 °F 30.9 °F 30.42 in WNW 4.0 mph 10.0 mph 91 % 0.00 in 0 W/m2
08:05 33.0 °F 30.7 °F 30.42 in WNW 3.0 mph 10.0 mph 91 % 0.00 in 0 W/m2
08:10 32.9 °F 30.6 °F 30.42 in NW 1.0 mph 10.0 mph 91 % 0.00 in 0 W/m2
08:20 32.7 °F 30.4 °F 30.43 in NW 2.0 mph 10.0 mph 91 % 0.00 in 5 W/m2
08:25 32.6 °F 30.5 °F 30.43 in NW 3.0 mph 10.0 mph 92 % 0.00 in 7 W/m2
08:30 32.6 °F 30.5 °F 30.42 in NW 3.0 mph 3.0 mph 92 % 0.00 in 9 W/m2
08:35 32.5 °F 30.4 °F 30.43 in NW 3.0 mph 5.0 mph 92 % 0.00 in 11 W/m2
08:40 32.5 °F 30.4 °F 30.43 in WNW 4.0 mph 4.0 mph 92 % 0.00 in 12 W/m2
08:45 32.5 °F 30.4 °F 30.43 in WNW 4.0 mph 10.0 mph 92 % 0.00 in 14 W/m2
08:55 32.4 °F 30.3 °F 30.43 in WNW 2.0 mph 10.0 mph 92 % 0.00 in 19 W/m2
09:05 32.5 °F 30.4 °F 30.43 in WNW 4.0 mph 4.0 mph 92 % 0.00 in 19 W/m2
09:10 32.6 °F 30.5 °F 30.43 in NW 3.0 mph 10.0 mph 92 % 0.00 in 21 W/m2
09:15 32.7 °F 30.6 °F 30.43 in NW 4.0 mph 10.0 mph 92 % 0.00 in 25 W/m2
09:20 32.9 °F 30.8 °F 30.44 in WNW 5.0 mph 10.0 mph 92 % 0.00 in 28 W/m2
09:30 33.4 °F 31.1 °F 30.43 in NW 6.0 mph 6.0 mph 91 % 0.00 in 90 W/m2
09:35 33.7 °F 31.4 °F 30.44 in WNW 6.0 mph 10.0 mph 91 % 0.00 in 109 W/m2
09:40 33.9 °F 31.3 °F 30.44 in WNW 6.0 mph 11.0 mph 90 % 0.00 in 123 W/m2
09:45 34.3 °F 31.7 °F 30.44 in NNW 7.0 mph 11.0 mph 90 % 0.00 in 127 W/m2
09:50 34.8 °F 31.9 °F 30.44 in NW 7.0 mph 7.0 mph 89 % 0.00 in 134 W/m2
09:55 35.3 °F 32.1 °F 30.44 in WNW 7.0 mph 10.0 mph 88 % 0.00 in 141 W/m2
10:00 35.9 °F 32.4 °F 30.44 in WNW 8.0 mph 10.0 mph 87 % 0.00 in 149 W/m2
10:05 36.3 °F 32.2 °F 30.44 in WNW 9.0 mph 10.0 mph 85 % 0.00 in 156 W/m2
10:10 36.7 °F 32.3 °F 30.43 in NW 8.0 mph 8.0 mph 84 % 0.00 in 162 W/m2
10:20 37.3 °F 32.6 °F 30.44 in WNW 7.0 mph 7.0 mph 83 % 0.00 in 174 W/m2
10:25 37.5 °F 32.2 °F 30.44 in WNW 7.0 mph 10.0 mph 81 % 0.00 in 181 W/m2
10:30 37.8 °F 32.2 °F 30.44 in NW 7.0 mph 7.0 mph 80 % 0.00 in 186 W/m2
10:35 38.0 °F 32.4 °F 30.44 in WNW 8.0 mph 8.0 mph 80 % 0.00 in 192 W/m2
10:40 38.3 °F 32.4 °F 30.44 in West 7.0 mph 7.0 mph 79 % 0.00 in 197 W/m2
10:45 38.5 °F 32.6 °F 30.44 in WNW 6.0 mph 10.0 mph 79 % 0.00 in 202 W/m2
10:50 38.6 °F 32.3 °F 30.43 in NW 7.0 mph 7.0 mph 78 % 0.00 in 207 W/m2
11:00 39.0 °F 32.7 °F 30.44 in WNW 6.0 mph 10.0 mph 78 % 0.00 in 216 W/m2
11:10 39.3 °F 32.7 °F 30.43 in NW 7.0 mph 10.0 mph 77 % 0.00 in 221 W/m2
11:15 39.5 °F 32.6 °F 30.43 in WNW 7.0 mph 10.0 mph 76 % 0.00 in 225 W/m2
11:20 39.6 °F 32.3 °F 30.43 in NW 7.0 mph 7.0 mph 75 % 0.00 in 227 W/m2
11:25 39.7 °F 32.4 °F 30.43 in WNW 7.0 mph 9.0 mph 75 % 0.00 in 229 W/m2
11:35 39.6 °F 32.0 °F 30.42 in WNW 8.0 mph 10.0 mph 74 % 0.00 in 236 W/m2
11:40 39.6 °F 32.0 °F 30.42 in WNW 9.0 mph 9.0 mph 74 % 0.00 in 237 W/m2
11:45 39.8 °F 32.2 °F 30.42 in WNW 9.0 mph 10.0 mph 74 % 0.00 in 237 W/m2
11:50 39.8 °F 32.2 °F 30.42 in NNW 9.0 mph 9.0 mph 74 % 0.00 in 237 W/m2
11:55 39.9 °F 32.3 °F 30.42 in WNW 9.0 mph 12.0 mph 74 % 0.00 in 237 W/m2
12:00 39.9 °F 31.9 °F 30.42 in NW 9.0 mph 9.0 mph 73 % 0.00 in 239 W/m2
12:10 40.3 °F 32.7 °F 30.41 in NW 7.0 mph 7.0 mph 74 % 0.00 in 239 W/m2
12:15 40.4 °F 32.8 °F 30.42 in NW 8.0 mph 12.0 mph 74 % 0.00 in 241 W/m2
12:20 40.4 °F 32.4 °F 30.41 in NNW 9.0 mph 9.0 mph 73 % 0.00 in 239 W/m2
12:25 40.5 °F 32.5 °F 30.41 in NW 9.0 mph 12.0 mph 73 % 0.00 in 239 W/m2
12:30 40.4 °F 32.1 °F 30.41 in NW 9.0 mph 11.0 mph 72 % 0.00 in 239 W/m2
12:35 40.5 °F 32.2 °F 30.41 in NW 10.0 mph 11.0 mph 72 % 0.00 in 237 W/m2
12:40 40.6 °F 31.9 °F 30.41 in NW 10.0 mph 12.0 mph 71 % 0.00 in 236 W/m2
12:45 40.6 °F 31.6 °F 30.41 in WNW 10.0 mph 12.0 mph 70 % 0.00 in 234 W/m2
12:55 40.8 °F 32.1 °F 30.42 in NW 7.0 mph 10.0 mph 71 % 0.00 in 229 W/m2
13:00 40.9 °F 31.9 °F 30.41 in NNW 7.0 mph 10.0 mph 70 % 0.00 in 225 W/m2
13:05 40.9 °F 32.2 °F 30.41 in NNW 8.0 mph 11.0 mph 71 % 0.00 in 220 W/m2
13:10 40.7 °F 31.7 °F 30.41 in NW 9.0 mph 9.0 mph 70 % 0.00 in 216 W/m2
13:15 40.6 °F 31.9 °F 30.41 in SW 9.0 mph 10.0 mph 71 % 0.00 in 211 W/m2
13:20 40.7 °F 32.0 °F 30.41 in WNW 9.0 mph 9.0 mph 71 % 0.00 in 209 W/m2
13:25 40.8 °F 31.8 °F 30.41 in WNW 8.0 mph 10.0 mph 70 % 0.00 in 204 W/m2
13:35 40.7 °F 31.7 °F 30.41 in NW 9.0 mph 10.0 mph 70 % 0.00 in 195 W/m2
13:40 40.7 °F 32.0 °F 30.41 in WNW 8.0 mph 10.0 mph 71 % 0.00 in 190 W/m2
13:45 40.7 °F 32.0 °F 30.41 in NW 8.0 mph 10.0 mph 71 % 0.00 in 185 W/m2
13:50 40.7 °F 32.0 °F 30.41 in NW 9.0 mph 13.0 mph 71 % 0.00 in 178 W/m2
13:55 40.8 °F 32.1 °F 30.41 in NW 8.0 mph 13.0 mph 71 % 0.00 in 172 W/m2
14:05 41.0 °F 32.3 °F 30.40 in WNW 8.0 mph 10.0 mph 71 % 0.00 in 158 W/m2
14:10 41.1 °F 32.4 °F 30.40 in NW 8.0 mph 8.0 mph 71 % 0.00 in 151 W/m2
14:15 41.2 °F 32.5 °F 30.40 in WNW 7.0 mph 10.0 mph 71 % 0.00 in 142 W/m2
14:20 41.3 °F 32.6 °F 30.40 in WNW 6.0 mph 10.0 mph 71 % 0.00 in 137 W/m2
14:25 41.4 °F 32.3 °F 30.40 in NW 5.0 mph 10.0 mph 70 % 0.00 in 128 W/m2
14:30 41.5 °F 32.4 °F 30.40 in West 5.0 mph 10.0 mph 70 % 0.00 in 121 W/m2
14:40 41.4 °F 32.3 °F 30.41 in NW 5.0 mph 10.0 mph 70 % 0.00 in 104 W/m2
14:45 41.3 °F 32.2 °F 30.40 in WNW 5.0 mph 10.0 mph 70 % 0.00 in 97 W/m2
14:50 41.1 °F 32.1 °F 30.40 in NW 6.0 mph 10.0 mph 70 % 0.00 in 88 W/m2
14:55 40.8 °F 31.8 °F 30.40 in WNW 6.0 mph 10.0 mph 70 % 0.00 in 81 W/m2
15:00 40.4 °F 31.4 °F 30.40 in WNW 6.0 mph 6.0 mph 70 % 0.00 in 70 W/m2
15:05 40.0 °F 31.0 °F 30.40 in NW 6.0 mph 10.0 mph 70 % 0.00 in 54 W/m2
15:15 39.4 °F 30.8 °F 30.40 in WNW 6.0 mph 10.0 mph 71 % 0.00 in 19 W/m2
15:20 39.2 °F 30.9 °F 30.40 in NW 5.0 mph 5.0 mph 72 % 0.00 in 18 W/m2
15:25 38.9 °F 30.6 °F 30.40 in NW 5.0 mph 10.0 mph 72 % 0.00 in 16 W/m2
15:30 38.7 °F 30.8 °F 30.40 in WNW 5.0 mph 5.0 mph 73 % 0.00 in 14 W/m2
15:40 38.4 °F 30.8 °F 30.40 in WNW 3.0 mph 10.0 mph 74 % 0.00 in 12 W/m2
15:45 38.1 °F 30.5 °F 30.40 in WNW 4.0 mph 10.0 mph 74 % 0.00 in 11 W/m2
15:50 37.9 °F 30.4 °F 30.40 in WNW 5.0 mph 5.0 mph 74 % 0.00 in 9 W/m2
15:55 37.6 °F 30.4 °F 30.41 in NW 5.0 mph 10.0 mph 75 % 0.00 in 7 W/m2
16:00 37.4 °F 30.5 °F 30.41 in WNW 4.0 mph 10.0 mph 76 % 0.00 in 5 W/m2
16:10 37.0 °F 30.5 °F 30.40 in WNW 6.0 mph 10.0 mph 77 % 0.00 in 0 W/m2
16:15 36.8 °F 30.3 °F 30.40 in WNW 6.0 mph 10.0 mph 77 % 0.00 in 0 W/m2
16:20 36.6 °F 30.1 °F 30.40 in NW 5.0 mph 10.0 mph 77 % 0.00 in 0 W/m2
16:25 36.4 °F 30.2 °F 30.40 in WNW 6.0 mph 10.0 mph 78 % 0.00 in 0 W/m2
16:30 36.2 °F 30.0 °F 30.41 in NW 6.0 mph 6.0 mph 78 % 0.00 in 0 W/m2
16:35 36.1 °F 30.2 °F 30.40 in NW 6.0 mph 10.0 mph 79 % 0.00 in 0 W/m2
16:45 36.0 °F 30.1 °F 30.41 in NW 6.0 mph 10.0 mph 79 % 0.00 in 0 W/m2
16:50 35.8 °F 29.9 °F 30.41 in NW 6.0 mph 6.0 mph 79 % 0.00 in 0 W/m2
16:55 35.6 °F 30.0 °F 30.40 in WNW 5.0 mph 10.0 mph 80 % 0.00 in 0 W/m2
17:00 35.4 °F 29.8 °F 30.41 in WNW 5.0 mph 5.0 mph 80 % 0.00 in 0 W/m2
17:10 35.1 °F 29.9 °F 30.41 in NW 5.0 mph 5.0 mph 81 % 0.00 in 0 W/m2
17:15 35.0 °F 29.8 °F 30.41 in WNW 6.0 mph 7.0 mph 81 % 0.00 in 0 W/m2
17:20 34.9 °F 30.0 °F 30.41 in NW 6.0 mph 6.0 mph 82 % 0.00 in 0 W/m2
17:25 34.8 °F 29.9 °F 30.41 in WNW 6.0 mph 10.0 mph 82 % 0.00 in 0 W/m2
17:30 34.8 °F 29.9 °F 30.40 in WNW 6.0 mph 6.0 mph 82 % 0.00 in 0 W/m2
17:40 34.7 °F 30.1 °F 30.40 in WNW 5.0 mph 10.0 mph 83 % 0.00 in 0 W/m2
17:45 34.7 °F 30.1 °F 30.40 in WNW 5.0 mph 10.0 mph 83 % 0.00 in 0 W/m2
17:50 34.7 °F 30.1 °F 30.40 in WNW 5.0 mph 10.0 mph 83 % 0.00 in 0 W/m2
17:55 34.7 °F 30.1 °F 30.40 in NW 6.0 mph 10.0 mph 83 % 0.00 in 0 W/m2
18:00 34.8 °F 30.2 °F 30.40 in WNW 6.0 mph 10.0 mph 83 % 0.00 in 0 W/m2
18:05 34.8 °F 30.2 °F 30.40 in WNW 6.0 mph 10.0 mph 83 % 0.00 in 0 W/m2
18:15 34.7 °F 30.1 °F 30.40 in WNW 5.0 mph 10.0 mph 83 % 0.00 in 0 W/m2
18:20 34.6 °F 30.0 °F 30.39 in WNW 5.0 mph 10.0 mph 83 % 0.00 in 0 W/m2
18:25 34.6 °F 30.0 °F 30.40 in WNW 5.0 mph 10.0 mph 83 % 0.00 in 0 W/m2
18:30 34.5 °F 29.9 °F 30.39 in WNW 5.0 mph 5.0 mph 83 % 0.00 in 0 W/m2
18:35 34.5 °F 29.9 °F 30.40 in WNW 6.0 mph 6.0 mph 83 % 0.00 in 0 W/m2
18:40 34.5 °F 29.9 °F 30.40 in WNW 6.0 mph 6.0 mph 83 % 0.00 in 0 W/m2
18:50 34.6 °F 29.7 °F 30.40 in WNW 5.0 mph 10.0 mph 82 % 0.00 in 0 W/m2
18:55 34.6 °F 29.7 °F 30.40 in WNW 4.0 mph 10.0 mph 82 % 0.00 in 0 W/m2
19:00 34.4 °F 29.5 °F 30.39 in WNW 3.0 mph 10.0 mph 82 % 0.00 in 0 W/m2
19:05 34.3 °F 29.4 °F 30.39 in WNW 2.0 mph 10.0 mph 82 % 0.00 in 0 W/m2
19:10 34.1 °F 29.2 °F 30.39 in WNW 2.0 mph 10.0 mph 82 % 0.00 in 0 W/m2
19:15 33.9 °F 29.3 °F 30.39 in WNW 1.0 mph 10.0 mph 83 % 0.00 in 0 W/m2
19:20 33.7 °F 29.1 °F 30.40 in WNW 2.0 mph 10.0 mph 83 % 0.00 in 0 W/m2
19:30 33.7 °F 29.4 °F 30.39 in WNW 5.0 mph 10.0 mph 84 % 0.00 in 0 W/m2
19:40 33.9 °F 29.6 °F 30.39 in WNW 5.0 mph 10.0 mph 84 % 0.00 in 0 W/m2
19:45 33.9 °F 29.6 °F 30.40 in WNW 5.0 mph 10.0 mph 84 % 0.00 in 0 W/m2
19:50 33.9 °F 29.9 °F 30.40 in WNW 5.0 mph 5.0 mph 85 % 0.00 in 0 W/m2
19:55 34.0 °F 30.0 °F 30.40 in WNW 5.0 mph 10.0 mph 85 % 0.00 in 0 W/m2
20:05 34.1 °F 30.1 °F 30.40 in WNW 5.0 mph 10.0 mph 85 % 0.00 in 0 W/m2
20:10 34.1 °F 30.1 °F 30.40 in WNW 5.0 mph 10.0 mph 85 % 0.00 in 0 W/m2
20:15 34.2 °F 30.4 °F 30.40 in NW 5.0 mph 10.0 mph 86 % 0.00 in 0 W/m2
20:20 34.2 °F 30.4 °F 30.39 in WNW 6.0 mph 10.0 mph 86 % 0.00 in 0 W/m2
20:25 34.3 °F 30.5 °F 30.40 in WNW 6.0 mph 10.0 mph 86 % 0.00 in 0 W/m2
20:30 34.5 °F 30.7 °F 30.39 in NW 6.0 mph 10.0 mph 86 % 0.00 in 0 W/m2
20:40 34.9 °F 31.1 °F 30.39 in WNW 7.0 mph 7.0 mph 86 % 0.00 in 0 W/m2
20:45 35.0 °F 31.2 °F 30.39 in WNW 7.0 mph 10.0 mph 86 % 0.00 in 0 W/m2
20:50 35.1 °F 31.0 °F 30.39 in WNW 7.0 mph 10.0 mph 85 % 0.00 in 0 W/m2
20:55 35.2 °F 31.1 °F 30.39 in WNW 7.0 mph 10.0 mph 85 % 0.00 in 0 W/m2
21:05 35.2 °F 31.1 °F 30.39 in West 7.0 mph 9.0 mph 85 % 0.00 in 0 W/m2
21:10 35.2 °F 31.1 °F 30.39 in NW 8.0 mph 8.0 mph 85 % 0.00 in 0 W/m2
21:15 35.1 °F 31.3 °F 30.39 in WNW 7.0 mph 10.0 mph 86 % 0.00 in 0 W/m2
21:25 35.2 °F 31.4 °F 30.39 in NW 8.0 mph 11.0 mph 86 % 0.00 in 0 W/m2
21:30 35.3 °F 31.5 °F 30.39 in WNW 7.0 mph 10.0 mph 86 % 0.00 in 0 W/m2
21:35 35.3 °F 31.5 °F 30.39 in WNW 7.0 mph 10.0 mph 86 % 0.00 in 0 W/m2
21:45 35.3 °F 31.5 °F 30.39 in West 7.0 mph 10.0 mph 86 % 0.00 in 0 W/m2
21:50 35.2 °F 31.4 °F 30.38 in WNW 6.0 mph 6.0 mph 86 % 0.00 in 0 W/m2
21:55 35.1 °F 31.3 °F 30.39 in WNW 5.0 mph 10.0 mph 86 % 0.00 in 0 W/m2
22:00 35.0 °F 31.2 °F 30.38 in West 5.0 mph 5.0 mph 86 % 0.00 in 0 W/m2
22:05 34.8 °F 31.0 °F 30.38 in West 4.0 mph 10.0 mph 86 % 0.00 in 0 W/m2
22:10 34.7 °F 31.2 °F 30.38 in West 3.0 mph 3.0 mph 87 % 0.00 in 0 W/m2
22:20 34.3 °F 30.8 °F 30.38 in WNW 5.0 mph 5.0 mph 87 % 0.00 in 0 W/m2
22:25 34.1 °F 30.9 °F 30.38 in WNW 4.0 mph 10.0 mph 88 % 0.00 in 0 W/m2
22:30 33.9 °F 30.7 °F 30.38 in WNW 3.0 mph 3.0 mph 88 % 0.00 in 0 W/m2
22:35 33.7 °F 30.5 °F 30.38 in WNW 2.0 mph 10.0 mph 88 % 0.00 in 0 W/m2
22:40 33.6 °F 30.4 °F 30.38 in WNW 2.0 mph 10.0 mph 88 % 0.00 in 0 W/m2
22:50 33.2 °F 30.0 °F 30.38 in WNW 3.0 mph 10.0 mph 88 % 0.00 in 0 W/m2
22:55 33.1 °F 30.2 °F 30.38 in WNW 4.0 mph 10.0 mph 89 % 0.00 in 0 W/m2
23:00 33.1 °F 30.5 °F 30.38 in WNW 5.0 mph 10.0 mph 90 % 0.00 in 0 W/m2
23:10 33.5 °F 31.2 °F 30.38 in WNW 4.0 mph 4.0 mph 91 % 0.00 in 0 W/m2
23:15 33.6 °F 31.0 °F 30.38 in WNW 4.0 mph 5.0 mph 90 % 0.00 in 0 W/m2
23:25 33.7 °F 31.1 °F 30.38 in WNW 4.0 mph 10.0 mph 90 % 0.00 in 0 W/m2
23:30 33.8 °F 31.5 °F 30.38 in WNW 3.0 mph 10.0 mph 91 % 0.00 in 0 W/m2
23:35 34.2 °F 31.8 °F 30.38 in WNW 5.0 mph 10.0 mph 91 % 0.00 in 0 W/m2
23:40 34.6 °F 32.2 °F 30.38 in WNW 7.0 mph 7.0 mph 91 % 0.00 in 0 W/m2
23:45 35.0 °F 32.6 °F 30.38 in WNW 5.0 mph 10.0 mph 91 % 0.00 in 0 W/m2
23:50 35.3 °F 32.9 °F 30.38 in NW 5.0 mph 10.0 mph 91 % 0.00 in 0 W/m2
Delerius-Weather
Compliments of Weather Underground - 2 mb

Data updates at regular intervals.